Atlas Voyager — V7OI6 — position and weather

sailwx.info

Track history (hours):
 
Tides and Currents Weather Stations Pressure Air Temp Water Temp Dewpoint Dewpoint Depression Visibility Wind Speed Wind Dir Waves Ship Positions

Atlas Voyager

Last reported at 2018-Jun-10 19:11 UTC. Time now 2018-Jun-23 19:15 UTC.
Position N 37°38' E 025°40'.
Warning: this ship's position is 13 days out of date.

Length 249 m; draft 7.5 m.

Type: Ship (hazmat cat A). MMSI: 538003095.

Date/timePositionNaut miles runAvg speedWind from/ knotsBaromVisibWave heightAir tempDewpointWater temp
2018-Jun-10 19:11N 37°38' E 025°40'0 1.6
2018-Jun-10 19:00N 37°38' E 025°40'1 1.3
2018-Jun-10 18:27N 37°38' E 025°39'1 1.1
2018-Jun-10 17:57N 37°38' E 025°38'0 0.9
2018-Jun-10 17:30N 37°38' E 025°38'1 1.3
2018-Jun-10 16:57N 37°38' E 025°37'1 1.6
2018-Jun-10 16:30N 37°38' E 025°36'2 3.0
2018-Jun-10 16:00N 37°38' E 025°34'1 1.8
2018-Jun-10 15:30N 37°38' E 025°33'1 1.9
2018-Jun-10 15:00N 37°38' E 025°32'1 1.6
2018-Jun-10 14:27N 37°39' E 025°31'1 1.5
2018-Jun-10 13:30N 37°40' E 025°30'1 1.5
2018-Jun-10 13:00N 37°40' E 025°29'1 1.7
2018-Jun-10 12:30N 37°41' E 025°28'1 1.9
2018-Jun-10 12:00N 37°41' E 025°27'1 2.0
2018-Jun-10 11:30N 37°42' E 025°26'1 2.0
2018-Jun-10 10:51N 37°43' E 025°25'1 2.0
2018-Jun-10 10:18N 37°43' E 025°24'1 1.8
2018-Jun-10 09:57N 37°44' E 025°23'1 1.6
2018-Jun-10 09:24N 37°44' E 025°22'1 1.4
2018-Jun-10 09:00N 37°45' E 025°22'0 0.8
2018-Jun-10 08:27N 37°45' E 025°22'0 0.6
2018-Jun-10 07:54N 37°45' E 025°21'0 0.6
2018-Jun-10 07:27N 37°45' E 025°21'1 0.9
2018-Jun-10 06:42N 37°46' E 025°20'0 0.9
2018-Jun-10 06:15N 37°46' E 025°20'0 0.8
2018-Jun-10 06:00N 37°46' E 025°20'1 0.9
2018-Jun-10 04:27N 37°48' E 025°19'1 1.0
2018-Jun-10 03:42N 37°48' E 025°18'0 0.8
2018-Jun-10 03:30N 37°48' E 025°18'1 0.8
2018-Jun-10 02:27N 37°49' E 025°18'1 0.6
2018-Jun-10 01:39N 37°50' E 025°18'0 0.6
2018-Jun-10 01:18N 37°50' E 025°18'0 0.6
2018-Jun-10 01:00N 37°50' E 025°18'0 0.6
2018-Jun-10 00:30N 37°51' E 025°18'0 0.5
2018-Jun-09 23:57N 37°51' E 025°18'0 0.5
2018-Jun-09 23:27N 37°51' E 025°18'0 0.5
2018-Jun-09 22:57N 37°51' E 025°18'0 0.5
2018-Jun-09 22:30N 37°51' E 025°18'0 0.6
2018-Jun-09 22:00N 37°51' E 025°17'0 0.5
2018-Jun-09 21:24N 37°52' E 025°17'0 0.7
2018-Jun-09 21:00N 37°52' E 025°17'0 0.9
2018-Jun-09 20:30N 37°52' E 025°16'1 1.2
2018-Jun-09 20:00N 37°51' E 025°15'1 1.3
2018-Jun-09 19:30N 37°51' E 025°15'1 1.3
2018-Jun-09 19:00N 37°51' E 025°14'1 1.5
2018-Jun-09 18:30N 37°50' E 025°14'2 4.6
2018-Jun-09 18:00N 37°49' E 025°17'2 4.6
2018-Jun-09 17:30N 37°49' E 025°20'0 0.9
2018-Jun-09 17:00N 37°49' E 025°20'0 0.6
2018-Jun-09 16:30N 37°49' E 025°19'0 0.9
2018-Jun-09 16:00N 37°49' E 025°19'1 0.9
2018-Jun-09 15:00N 37°49' E 025°17'1 1.3
2018-Jun-09 14:30N 37°49' E 025°17'1 1.1
2018-Jun-09 14:00N 37°49' E 025°16'1 1.2
2018-Jun-09 13:27N 37°49' E 025°15'1 1.2
2018-Jun-09 12:57N 37°49' E 025°14'1 1.3
2018-Jun-09 12:21N 37°49' E 025°13'7 0.6
2018-Jun-09 01:02N 37°53' E 025°06'0 0.4
2018-Jun-09 00:56N 37°53' E 025°06'53 1.2
2018-Jun-07 03:29N 37°33' E 024°03'0 0.3
2018-Jun-07 02:01N 37°33' E 024°03'0 4.3
2018-Jun-07 02:00N 37°33' E 024°03'7 3.6
2018-Jun-07 00:10N 37°33' E 024°11'5 0.9
2018-Jun-06 18:29N 37°31' E 024°05'1 1.4
2018-Jun-06 17:56N 37°31' E 024°04'1 1.3
2018-Jun-06 17:26N 37°30' E 024°03'1 1.2
2018-Jun-06 16:47N 37°30' E 024°02'0 1.2
2018-Jun-06 16:23N 37°30' E 024°02'1 1.5
2018-Jun-06 15:59N 37°30' E 024°01'1 2.0
2018-Jun-06 15:30N 37°30' E 023°60'5 3.2
2018-Jun-06 14:03N 37°34' E 024°04'0 3.4
2018-Jun-06 13:59N 37°34' E 024°04'1 2.2
2018-Jun-06 13:29N 37°34' E 024°05'2 4.1
2018-Jun-06 13:00N 37°34' E 024°02'2 4.2
2018-Jun-06 12:30N 37°34' E 023°60'2 4.3
2018-Jun-06 12:00N 37°34' E 023°57'2 4.3
2018-Jun-06 11:30N 37°34' E 023°54'2 4.4
2018-Jun-06 11:00N 37°34' E 023°52'2 4.0
2018-Jun-06 10:30N 37°34' E 023°49'2 4.8
2018-Jun-06 10:00N 37°31' E 023°49'2 4.7
2018-Jun-06 09:30N 37°29' E 023°49'2 4.5
2018-Jun-06 09:00N 37°27' E 023°49'2 4.4
2018-Jun-06 08:30N 37°25' E 023°49'2 3.5
2018-Jun-06 08:00N 37°23' E 023°50'2 4.4
2018-Jun-06 07:30N 37°23' E 023°53'2 4.6
2018-Jun-06 07:00N 37°23' E 023°56'2 4.7
2018-Jun-06 06:30N 37°23' E 023°59'2 4.3
2018-Jun-06 06:00N 37°24' E 024°01'3 4.7
2018-Jun-06 05:25N 37°27' E 024°02'1 1.3
2018-Jun-06 04:50N 37°27' E 024°01'0 0.4
2018-Jun-06 04:11N 37°28' E 024°01'0 0.4
2018-Jun-06 03:59N 37°28' E 024°01'2 0.5
2018-Jun-06 00:41N 37°29' E 024°01'1 0.6
2018-Jun-05 23:26N 37°30' E 024°00'0 0.5
2018-Jun-05 22:59N 37°30' E 024°00'0 0.5
2018-Jun-05 22:26N 37°30' E 024°00'0 0.6
2018-Jun-05 21:59N 37°30' E 023°60'0 0.6
2018-Jun-05 21:26N 37°31' E 023°59'0 0.7
2018-Jun-05 20:59N 37°31' E 023°59'0 0.9
2018-Jun-05 20:29N 37°31' E 023°58'1 2.0
2018-Jun-05 20:00N 37°31' E 023°57'3 7.0
2018-Jun-05 19:30N 37°33' E 023°54'5 9.8
2018-Jun-05 19:00N 37°36' E 023°49'5 9.3
2018-Jun-05 18:30N 37°39' E 023°44'5 9.2
2018-Jun-05 18:00N 37°43' E 023°41'5 9.4
2018-Jun-05 17:30N 37°47' E 023°38'7 7.9
2018-Jun-05 16:37N 37°52' E 023°32'1 6.0
2018-Jun-05 16:30N 37°52' E 023°31'0 0.6
2018-Jun-05 15:58N 37°52' E 023°30'0 0.1
2018-Jun-05 15:28N 37°52' E 023°30'0 0.2
2018-Jun-05 14:58N 37°52' E 023°31'0 0.1
2018-Jun-05 14:28N 37°52' E 023°31'0 0.1
2018-Jun-05 13:58N 37°52' E 023°31'0 0.0
2018-Jun-05 13:28N 37°52' E 023°31'0 0.0
2018-Jun-05 12:58N 37°52' E 023°31'0 0.0
2018-Jun-05 12:28N 37°52' E 023°31'0 0.3
2018-Jun-05 11:58N 37°52' E 023°31'0 0.1
2018-Jun-05 11:28N 37°52' E 023°31'0 0.0
2018-Jun-05 11:01N 37°52' E 023°31'0 0.0
2018-Jun-05 10:31N 37°52' E 023°31'0 0.0
2018-Jun-05 09:55N 37°52' E 023°31'0 0.1
2018-Jun-05 09:30N 37°52' E 023°31'0 0.1
2018-Jun-05 09:00N 37°52' E 023°31'0 0.1
2018-Jun-05 08:30N 37°52' E 023°31'0 0.1
2018-Jun-05 08:00N 37°52' E 023°31'0 0.0
2018-Jun-05 07:30N 37°52' E 023°31'0 0.1
2018-Jun-05 07:00N 37°52' E 023°31'0 0.2
2018-Jun-05 06:30N 37°52' E 023°31'0 0.0
2018-Jun-05 06:00N 37°52' E 023°30'0 0.0
2018-Jun-05 05:30N 37°52' E 023°30'0 0.1
2018-Jun-05 05:00N 37°52' E 023°30'0 0.0
2018-Jun-05 04:30N 37°52' E 023°30'0 0.1
2018-Jun-05 04:00N 37°52' E 023°30'0 0.1
2018-Jun-05 03:30N 37°52' E 023°30'0 0.1
2018-Jun-05 03:00N 37°52' E 023°31'0 0.0
2018-Jun-05 02:30N 37°52' E 023°31'0 0.0
2018-Jun-05 02:00N 37°52' E 023°31'0 0.1
2018-Jun-05 01:30N 37°52' E 023°30'0 0.0
2018-Jun-05 01:00N 37°52' E 023°30'0 0.0
2018-Jun-05 00:30N 37°52' E 023°30'0 0.0
2018-Jun-05 00:00N 37°52' E 023°30'0 0.0
2018-Jun-04 23:30N 37°52' E 023°30'0 0.1
2018-Jun-04 23:00N 37°52' E 023°30'0 0.0
2018-Jun-04 22:30N 37°52' E 023°30'0 0.0
2018-Jun-04 22:00N 37°52' E 023°30'0 0.0
2018-Jun-04 21:30N 37°52' E 023°30'0 0.0
2018-Jun-04 21:00N 37°52' E 023°30'0 0.0
2018-Jun-04 20:30N 37°52' E 023°30'0 0.0
2018-Jun-04 20:00N 37°52' E 023°30'0 0.0
2018-Jun-04 19:30N 37°52' E 023°30'0 0.0
2018-Jun-04 19:00N 37°52' E 023°30'0 0.0
2018-Jun-04 18:30N 37°52' E 023°30'0 0.1
2018-Jun-04 18:00N 37°52' E 023°30'0 0.1
2018-Jun-04 17:30N 37°52' E 023°30'0 0.0
2018-Jun-04 17:00N 37°52' E 023°30'0 0.0
2018-Jun-04 16:30N 37°52' E 023°30'0 0.2
2018-Jun-04 16:00N 37°52' E 023°30'0 0.1
2018-Jun-04 15:30N 37°52' E 023°30'0 0.0
2018-Jun-04 15:00N 37°52' E 023°30'0 0.0
2018-Jun-04 14:30N 37°52' E 023°30'0 0.0
2018-Jun-04 14:00N 37°52' E 023°30'0 0.0
2018-Jun-04 13:30N 37°52' E 023°30'0 0.0
2018-Jun-04 13:00N 37°52' E 023°30'0 0.0
2018-Jun-04 12:30N 37°52' E 023°30'0 0.0
2018-Jun-04 12:00N 37°52' E 023°30'0 0.0
2018-Jun-04 11:27N 37°52' E 023°30'0 0.3
2018-Jun-04 11:00N 37°52' E 023°30'0 0.2
2018-Jun-04 10:30N 37°52' E 023°31'0 0.1
2018-Jun-04 10:00N 37°52' E 023°31'0 0.1
2018-Jun-04 09:30N 37°52' E 023°31'0 0.0
2018-Jun-04 09:00N 37°52' E 023°31'0 0.0
2018-Jun-04 08:30N 37°52' E 023°31'0 0.0
2018-Jun-04 08:00N 37°52' E 023°31'0 0.0
2018-Jun-04 07:30N 37°52' E 023°31'0 0.1
2018-Jun-04 06:54N 37°52' E 023°31'0 0.2
2018-Jun-04 06:30N 37°52' E 023°30'0 0.1
2018-Jun-04 06:00N 37°52' E 023°30'0 0.1
2018-Jun-04 05:30N 37°52' E 023°30'0 0.0
2018-Jun-04 05:00N 37°52' E 023°30'0 0.0
2018-Jun-04 04:30N 37°52' E 023°30'0 0.0
2018-Jun-04 04:00N 37°52' E 023°30'0 0.0
2018-Jun-04 03:30N 37°52' E 023°30'0 0.0
2018-Jun-04 03:00N 37°52' E 023°30'0 0.0
2018-Jun-04 02:30N 37°52' E 023°30'0 0.0
2018-Jun-04 02:00N 37°52' E 023°30'0 0.0
2018-Jun-04 01:30N 37°52' E 023°30'0 0.0
2018-Jun-04 01:00N 37°52' E 023°30'0 0.0
2018-Jun-04 00:30N 37°52' E 023°30'0 0.1
2018-Jun-03 23:59N 37°52' E 023°31'0 0.1
2018-Jun-03 23:29N 37°52' E 023°30'0 0.0
2018-Jun-03 22:59N 37°52' E 023°30'0 0.0
2018-Jun-03 22:29N 37°52' E 023°30'0 0.0
2018-Jun-03 21:59N 37°52' E 023°30'0 0.0
2018-Jun-03 21:29N 37°52' E 023°30'0 0.0
2018-Jun-03 20:59N 37°52' E 023°30'0 0.0
2018-Jun-03 20:29N 37°52' E 023°30'0 0.0
2018-Jun-03 19:59N 37°52' E 023°30'0 0.0
2018-Jun-03 19:29N 37°52' E 023°30'0 0.0
2018-Jun-03 18:59N 37°52' E 023°30'0 0.0
2018-Jun-03 18:29N 37°52' E 023°30'0 0.0
2018-Jun-03 17:59N 37°52' E 023°30'0 0.0
2018-Jun-03 17:29N 37°52' E 023°30'0 0.1
2018-Jun-03 16:59N 37°52' E 023°30'0 0.2
2018-Jun-03 16:29N 37°52' E 023°30'0 0.1
2018-Jun-03 15:59N 37°52' E 023°30'0 0.0
2018-Jun-03 15:29N 37°52' E 023°30'0 0.0
2018-Jun-03 14:59N 37°52' E 023°30'0 0.0
2018-Jun-03 14:29N 37°52' E 023°31'0 0.0
2018-Jun-03 13:59N 37°52' E 023°30'0 0.0
2018-Jun-03 13:29N 37°52' E 023°30'0 0.0
2018-Jun-03 12:59N 37°52' E 023°30'0 0.0
2018-Jun-03 12:29N 37°52' E 023°30'0 0.0
2018-Jun-03 11:59N 37°52' E 023°30'0 0.0
2018-Jun-03 11:29N 37°52' E 023°30'0 0.0
2018-Jun-03 10:59N 37°52' E 023°30'0 0.0
2018-Jun-03 10:29N 37°52' E 023°30'0 0.1
2018-Jun-03 09:59N 37°52' E 023°30'0 0.0
2018-Jun-03 09:29N 37°52' E 023°30'0 0.0
2018-Jun-03 08:59N 37°52' E 023°30'0 0.0
2018-Jun-03 08:29N 37°52' E 023°30'0 0.0
2018-Jun-03 07:59N 37°52' E 023°30'0 0.1
2018-Jun-03 07:29N 37°52' E 023°30'0 0.0
2018-Jun-03 06:59N 37°52' E 023°30'0 0.0
2018-Jun-03 06:29N 37°52' E 023°30'0 0.1
2018-Jun-03 05:59N 37°52' E 023°30'0 0.0
2018-Jun-03 05:29N 37°52' E 023°30'0 0.0
2018-Jun-03 04:59N 37°52' E 023°30'0 0.0
2018-Jun-03 04:29N 37°52' E 023°30'0 0.0
2018-Jun-03 03:59N 37°52' E 023°31'0 0.0
2018-Jun-03 03:29N 37°52' E 023°31'0 0.0
2018-Jun-03 02:59N 37°52' E 023°31'0 0.0
2018-Jun-03 02:29N 37°52' E 023°30'0 0.0
2018-Jun-03 01:59N 37°52' E 023°31'0 0.0
2018-Jun-03 01:29N 37°52' E 023°30'0 0.0
2018-Jun-03 00:59N 37°52' E 023°30'0 0.0
2018-Jun-03 00:29N 37°52' E 023°31'0 0.0
2018-Jun-02 23:59N 37°52' E 023°31'0 0.0
2018-Jun-02 23:29N 37°52' E 023°31'0 0.0
2018-Jun-02 22:59N 37°52' E 023°31'0 0.0
2018-Jun-02 22:29N 37°52' E 023°31'0 0.1
2018-Jun-02 21:59N 37°52' E 023°31'0 0.0
2018-Jun-02 21:29N 37°52' E 023°31'0 0.1
2018-Jun-02 20:59N 37°52' E 023°31'0 0.0
2018-Jun-02 20:29N 37°52' E 023°31'0 0.0
2018-Jun-02 19:59N 37°52' E 023°31'0 0.0
2018-Jun-02 19:29N 37°52' E 023°30'0 0.2
2018-Jun-02 18:59N 37°52' E 023°30'0 0.0
2018-Jun-02 18:29N 37°52' E 023°30'0 0.0
2018-Jun-02 17:59N 37°52' E 023°30'0 0.0
2018-Jun-02 17:29N 37°52' E 023°30'0 0.1
2018-Jun-02 16:59N 37°52' E 023°30'0 0.1
2018-Jun-02 16:29N 37°52' E 023°30'0 0.0
2018-Jun-02 15:59N 37°52' E 023°30'0 0.0
2018-Jun-02 15:29N 37°52' E 023°30'0 0.0
2018-Jun-02 14:59N 37°52' E 023°30'0 0.0
2018-Jun-02 14:29N 37°52' E 023°30'0 0.1
2018-Jun-02 13:58N 37°52' E 023°30'0 0.0
2018-Jun-02 13:28N 37°52' E 023°30'0 0.0
2018-Jun-02 12:58N 37°52' E 023°30'0 0.0
2018-Jun-02 12:28N 37°52' E 023°30'0 0.0
2018-Jun-02 11:58N 37°52' E 023°30'0 0.1
2018-Jun-02 11:28N 37°52' E 023°30'0 0.0
2018-Jun-02 10:58N 37°52' E 023°30'0 0.1
2018-Jun-02 10:28N 37°52' E 023°31'0 0.2
2018-Jun-02 09:58N 37°52' E 023°31'0 0.0
2018-Jun-02 09:28N 37°52' E 023°31'0 0.0
2018-Jun-02 08:58N 37°52' E 023°31'0 0.0
2018-Jun-02 08:28N 37°52' E 023°31'0 0.0
2018-Jun-02 07:58N 37°52' E 023°31'0 0.0
2018-Jun-02 07:28N 37°52' E 023°31'0 0.1
2018-Jun-02 06:58N 37°52' E 023°31'0 0.1
2018-Jun-02 06:28N 37°52' E 023°31'0 0.0
2018-Jun-02 05:58N 37°52' E 023°31'0 0.0
2018-Jun-02 05:28N 37°52' E 023°31'0 0.0
2018-Jun-02 04:58N 37°52' E 023°31'0 0.0
2018-Jun-02 04:28N 37°52' E 023°31'0 0.0
2018-Jun-02 03:58N 37°52' E 023°31'0 0.0
2018-Jun-02 03:28N 37°52' E 023°31'0 0.0
2018-Jun-02 02:58N 37°52' E 023°31'0 0.0
2018-Jun-02 02:28N 37°52' E 023°31'0 0.0
2018-Jun-02 01:58N 37°52' E 023°31'0 0.1
2018-Jun-02 01:28N 37°52' E 023°31'0 0.0
2018-Jun-02 00:58N 37°52' E 023°31'0 0.1
2018-Jun-02 00:28N 37°52' E 023°31'0 0.0
2018-Jun-01 23:58N 37°52' E 023°31'0 0.0
2018-Jun-01 23:28N 37°52' E 023°31'0 0.1
2018-Jun-01 22:58N 37°52' E 023°31'0 0.1
2018-Jun-01 22:28N 37°52' E 023°31'0 0.0
2018-Jun-01 21:58N 37°52' E 023°31'0 0.1
2018-Jun-01 21:28N 37°52' E 023°31'0 0.0
2018-Jun-01 20:58N 37°52' E 023°31'0 0.0
2018-Jun-01 20:28N 37°52' E 023°31'0 0.1
2018-Jun-01 19:58N 37°52' E 023°31'0 0.1
2018-Jun-01 19:28N 37°52' E 023°31'0 0.0
2018-Jun-01 18:58N 37°52' E 023°31'0 0.0
2018-Jun-01 18:28N 37°52' E 023°31'0 0.0
2018-Jun-01 17:58N 37°52' E 023°31'0 0.1
2018-Jun-01 17:28N 37°52' E 023°31'0 0.0
2018-Jun-01 16:58N 37°52' E 023°31'0 0.0
2018-Jun-01 16:28N 37°52' E 023°31'0 0.0
2018-Jun-01 15:58N 37°52' E 023°31'0 0.1
2018-Jun-01 15:28N 37°52' E 023°31'0 0.1
2018-Jun-01 14:58N 37°52' E 023°31'0 0.1
2018-Jun-01 14:28N 37°52' E 023°31'0 0.2
2018-Jun-01 13:58N 37°52' E 023°31'0 0.1
2018-Jun-01 13:28N 37°52' E 023°31'0 0.0
2018-Jun-01 12:58N 37°52' E 023°31'0 0.1
2018-Jun-01 12:28N 37°52' E 023°31'0 0.0
2018-Jun-01 11:58N 37°52' E 023°31'0 0.1
2018-Jun-01 11:28N 37°52' E 023°31'0 0.1
2018-Jun-01 10:58N 37°52' E 023°31'0 0.1
2018-Jun-01 10:28N 37°52' E 023°31'0 0.2
2018-Jun-01 09:58N 37°52' E 023°31'0 0.0
2018-Jun-01 08:43N 37°52' E 023°31'0 0.1
2018-Jun-01 08:16N 37°52' E 023°31'0 0.1
2018-Jun-01 06:46N 37°52' E 023°31'0 0.0
2018-Jun-01 06:28N 37°52' E 023°31'0 0.1
2018-Jun-01 05:58N 37°52' E 023°31'0 0.1
2018-Jun-01 05:31N 37°52' E 023°31'0 0.0
2018-Jun-01 05:01N 37°52' E 023°31'0 0.0
2018-Jun-01 04:30N 37°52' E 023°31'0 0.1
2018-Jun-01 04:00N 37°52' E 023°31'0 0.0
2018-Jun-01 03:30N 37°52' E 023°31'0 0.1
2018-Jun-01 03:00N 37°52' E 023°31'0 0.1
2018-Jun-01 02:30N 37°52' E 023°31'0 0.1
2018-Jun-01 02:00N 37°52' E 023°31'0 0.0
2018-Jun-01 01:30N 37°52' E 023°31'0 0.0
2018-Jun-01 01:00N 37°52' E 023°31'0 0.0
2018-Jun-01 00:30N 37°52' E 023°31'0 0.1
2018-Jun-01 00:00N 37°52' E 023°31'0 0.0
2018-May-31 23:30N 37°52' E 023°31'0 0.1
2018-May-31 23:00N 37°52' E 023°31'0 0.1
2018-May-31 22:30N 37°52' E 023°31'0 0.0
2018-May-31 22:00N 37°52' E 023°31'0 0.0
2018-May-31 21:30N 37°52' E 023°31'0 0.0
2018-May-31 21:00N 37°52' E 023°31'0 0.1
2018-May-31 20:30N 37°52' E 023°31'0 0.1
2018-May-31 20:00N 37°52' E 023°30'0 0.0
2018-May-31 19:30N 37°52' E 023°30'  
Track history (hours):
 
Tides and Currents Weather Stations Pressure Air Temp Water Temp Dewpoint Dewpoint Depression Visibility Wind Speed Wind Dir Waves Ship Positions

Atlas Voyager

Last reported at 2018-Jun-10 19:11 UTC. Time now 2018-Jun-23 19:15 UTC.
Position N 37°38' E 025°40'.
Warning: this ship's position is 13 days out of date.

Length 249 m; draft 7.5 m.

Type: Ship (hazmat cat A). MMSI: 538003095.

Date/timePositionNaut miles runAvg speedWind from/ knotsBaromVisibWave heightAir tempDewpointWater temp
2018-Jun-10 19:11N 37°38' E 025°40'0 1.6
2018-Jun-10 19:00N 37°38' E 025°40'1 1.3
2018-Jun-10 18:27N 37°38' E 025°39'1 1.1
2018-Jun-10 17:57N 37°38' E 025°38'0 0.9
2018-Jun-10 17:30N 37°38' E 025°38'1 1.3
2018-Jun-10 16:57N 37°38' E 025°37'1 1.6
2018-Jun-10 16:30N 37°38' E 025°36'2 3.0
2018-Jun-10 16:00N 37°38' E 025°34'1 1.8
2018-Jun-10 15:30N 37°38' E 025°33'1 1.9
2018-Jun-10 15:00N 37°38' E 025°32'1 1.6
2018-Jun-10 14:27N 37°39' E 025°31'1 1.5
2018-Jun-10 13:30N 37°40' E 025°30'1 1.5
2018-Jun-10 13:00N 37°40' E 025°29'1 1.7
2018-Jun-10 12:30N 37°41' E 025°28'1 1.9
2018-Jun-10 12:00N 37°41' E 025°27'1 2.0
2018-Jun-10 11:30N 37°42' E 025°26'1 2.0
2018-Jun-10 10:51N 37°43' E 025°25'1 2.0
2018-Jun-10 10:18N 37°43' E 025°24'1 1.8
2018-Jun-10 09:57N 37°44' E 025°23'1 1.6
2018-Jun-10 09:24N 37°44' E 025°22'1 1.4
2018-Jun-10 09:00N 37°45' E 025°22'0 0.8
2018-Jun-10 08:27N 37°45' E 025°22'0 0.6
2018-Jun-10 07:54N 37°45' E 025°21'0 0.6
2018-Jun-10 07:27N 37°45' E 025°21'1 0.9
2018-Jun-10 06:42N 37°46' E 025°20'0 0.9
2018-Jun-10 06:15N 37°46' E 025°20'0 0.8
2018-Jun-10 06:00N 37°46' E 025°20'1 0.9
2018-Jun-10 04:27N 37°48' E 025°19'1 1.0
2018-Jun-10 03:42N 37°48' E 025°18'0 0.8
2018-Jun-10 03:30N 37°48' E 025°18'1 0.8
2018-Jun-10 02:27N 37°49' E 025°18'1 0.6
2018-Jun-10 01:39N 37°50' E 025°18'0 0.6
2018-Jun-10 01:18N 37°50' E 025°18'0 0.6
2018-Jun-10 01:00N 37°50' E 025°18'0 0.6
2018-Jun-10 00:30N 37°51' E 025°18'0 0.5
2018-Jun-09 23:57N 37°51' E 025°18'0 0.5
2018-Jun-09 23:27N 37°51' E 025°18'0 0.5
2018-Jun-09 22:57N 37°51' E 025°18'0 0.5
2018-Jun-09 22:30N 37°51' E 025°18'0 0.6
2018-Jun-09 22:00N 37°51' E 025°17'0 0.5
2018-Jun-09 21:24N 37°52' E 025°17'0 0.7
2018-Jun-09 21:00N 37°52' E 025°17'0 0.9
2018-Jun-09 20:30N 37°52' E 025°16'1 1.2
2018-Jun-09 20:00N 37°51' E 025°15'1 1.3
2018-Jun-09 19:30N 37°51' E 025°15'1 1.3
2018-Jun-09 19:00N 37°51' E 025°14'1 1.5
2018-Jun-09 18:30N 37°50' E 025°14'2 4.6
2018-Jun-09 18:00N 37°49' E 025°17'2 4.6
2018-Jun-09 17:30N 37°49' E 025°20'0 0.9
2018-Jun-09 17:00N 37°49' E 025°20'0 0.6
2018-Jun-09 16:30N 37°49' E 025°19'0 0.9
2018-Jun-09 16:00N 37°49' E 025°19'1 0.9
2018-Jun-09 15:00N 37°49' E 025°17'1 1.3
2018-Jun-09 14:30N 37°49' E 025°17'1 1.1
2018-Jun-09 14:00N 37°49' E 025°16'1 1.2
2018-Jun-09 13:27N 37°49' E 025°15'1 1.2
2018-Jun-09 12:57N 37°49' E 025°14'1 1.3
2018-Jun-09 12:21N 37°49' E 025°13'7 0.6
2018-Jun-09 01:02N 37°53' E 025°06'0 0.4
2018-Jun-09 00:56N 37°53' E 025°06'53 1.2
2018-Jun-07 03:29N 37°33' E 024°03'0 0.3
2018-Jun-07 02:01N 37°33' E 024°03'0 4.3
2018-Jun-07 02:00N 37°33' E 024°03'7 3.6
2018-Jun-07 00:10N 37°33' E 024°11'5 0.9
2018-Jun-06 18:29N 37°31' E 024°05'1 1.4
2018-Jun-06 17:56N 37°31' E 024°04'1 1.3
2018-Jun-06 17:26N 37°30' E 024°03'1 1.2
2018-Jun-06 16:47N 37°30' E 024°02'0 1.2
2018-Jun-06 16:23N 37°30' E 024°02'1 1.5
2018-Jun-06 15:59N 37°30' E 024°01'1 2.0
2018-Jun-06 15:30N 37°30' E 023°60'5 3.2
2018-Jun-06 14:03N 37°34' E 024°04'0 3.4
2018-Jun-06 13:59N 37°34' E 024°04'1 2.2
2018-Jun-06 13:29N 37°34' E 024°05'2 4.1
2018-Jun-06 13:00N 37°34' E 024°02'2 4.2
2018-Jun-06 12:30N 37°34' E 023°60'2 4.3
2018-Jun-06 12:00N 37°34' E 023°57'2 4.3
2018-Jun-06 11:30N 37°34' E 023°54'2 4.4
2018-Jun-06 11:00N 37°34' E 023°52'2 4.0
2018-Jun-06 10:30N 37°34' E 023°49'2 4.8
2018-Jun-06 10:00N 37°31' E 023°49'2 4.7
2018-Jun-06 09:30N 37°29' E 023°49'2 4.5
2018-Jun-06 09:00N 37°27' E 023°49'2 4.4
2018-Jun-06 08:30N 37°25' E 023°49'2 3.5
2018-Jun-06 08:00N 37°23' E 023°50'2 4.4
2018-Jun-06 07:30N 37°23' E 023°53'2 4.6
2018-Jun-06 07:00N 37°23' E 023°56'2 4.7
2018-Jun-06 06:30N 37°23' E 023°59'2 4.3
2018-Jun-06 06:00N 37°24' E 024°01'3 4.7
2018-Jun-06 05:25N 37°27' E 024°02'1 1.3
2018-Jun-06 04:50N 37°27' E 024°01'0 0.4
2018-Jun-06 04:11N 37°28' E 024°01'0 0.4
2018-Jun-06 03:59N 37°28' E 024°01'2 0.5
2018-Jun-06 00:41N 37°29' E 024°01'1 0.6
2018-Jun-05 23:26N 37°30' E 024°00'0 0.5
2018-Jun-05 22:59N 37°30' E 024°00'0 0.5
2018-Jun-05 22:26N 37°30' E 024°00'0 0.6
2018-Jun-05 21:59N 37°30' E 023°60'0 0.6
2018-Jun-05 21:26N 37°31' E 023°59'0 0.7
2018-Jun-05 20:59N 37°31' E 023°59'0 0.9
2018-Jun-05 20:29N 37°31' E 023°58'1 2.0
2018-Jun-05 20:00N 37°31' E 023°57'3 7.0
2018-Jun-05 19:30N 37°33' E 023°54'5 9.8
2018-Jun-05 19:00N 37°36' E 023°49'5 9.3
2018-Jun-05 18:30N 37°39' E 023°44'5 9.2
2018-Jun-05 18:00N 37°43' E 023°41'5 9.4
2018-Jun-05 17:30N 37°47' E 023°38'7 7.9
2018-Jun-05 16:37N 37°52' E 023°32'1 6.0
2018-Jun-05 16:30N 37°52' E 023°31'0 0.6
2018-Jun-05 15:58N 37°52' E 023°30'0 0.1
2018-Jun-05 15:28N 37°52' E 023°30'0 0.2
2018-Jun-05 14:58N 37°52' E 023°31'0 0.1
2018-Jun-05 14:28N 37°52' E 023°31'0 0.1
2018-Jun-05 13:58N 37°52' E 023°31'0 0.0
2018-Jun-05 13:28N 37°52' E 023°31'0 0.0
2018-Jun-05 12:58N 37°52' E 023°31'0 0.0
2018-Jun-05 12:28N 37°52' E 023°31'0 0.3
2018-Jun-05 11:58N 37°52' E 023°31'0 0.1
2018-Jun-05 11:28N 37°52' E 023°31'0 0.0
2018-Jun-05 11:01N 37°52' E 023°31'0 0.0
2018-Jun-05 10:31N 37°52' E 023°31'0 0.0
2018-Jun-05 09:55N 37°52' E 023°31'0 0.1
2018-Jun-05 09:30N 37°52' E 023°31'0 0.1
2018-Jun-05 09:00N 37°52' E 023°31'0 0.1
2018-Jun-05 08:30N 37°52' E 023°31'0 0.1
2018-Jun-05 08:00N 37°52' E 023°31'0 0.0
2018-Jun-05 07:30N 37°52' E 023°31'0 0.1
2018-Jun-05 07:00N 37°52' E 023°31'0 0.2
2018-Jun-05 06:30N 37°52' E 023°31'0 0.0
2018-Jun-05 06:00N 37°52' E 023°30'0 0.0
2018-Jun-05 05:30N 37°52' E 023°30'0 0.1
2018-Jun-05 05:00N 37°52' E 023°30'0 0.0
2018-Jun-05 04:30N 37°52' E 023°30'0 0.1
2018-Jun-05 04:00N 37°52' E 023°30'0 0.1
2018-Jun-05 03:30N 37°52' E 023°30'0 0.1
2018-Jun-05 03:00N 37°52' E 023°31'0 0.0
2018-Jun-05 02:30N 37°52' E 023°31'0 0.0
2018-Jun-05 02:00N 37°52' E 023°31'0 0.1
2018-Jun-05 01:30N 37°52' E 023°30'0 0.0
2018-Jun-05 01:00N 37°52' E 023°30'0 0.0
2018-Jun-05 00:30N 37°52' E 023°30'0 0.0
2018-Jun-05 00:00N 37°52' E 023°30'0 0.0
2018-Jun-04 23:30N 37°52' E 023°30'0 0.1
2018-Jun-04 23:00N 37°52' E 023°30'0 0.0
2018-Jun-04 22:30N 37°52' E 023°30'0 0.0
2018-Jun-04 22:00N 37°52' E 023°30'0 0.0
2018-Jun-04 21:30N 37°52' E 023°30'0 0.0
2018-Jun-04 21:00N 37°52' E 023°30'0 0.0
2018-Jun-04 20:30N 37°52' E 023°30'0 0.0
2018-Jun-04 20:00N 37°52' E 023°30'0 0.0
2018-Jun-04 19:30N 37°52' E 023°30'0 0.0
2018-Jun-04 19:00N 37°52' E 023°30'0 0.0
2018-Jun-04 18:30N 37°52' E 023°30'0 0.1
2018-Jun-04 18:00N 37°52' E 023°30'0 0.1
2018-Jun-04 17:30N 37°52' E 023°30'0 0.0
2018-Jun-04 17:00N 37°52' E 023°30'0 0.0
2018-Jun-04 16:30N 37°52' E 023°30'0 0.2
2018-Jun-04 16:00N 37°52' E 023°30'0 0.1
2018-Jun-04 15:30N 37°52' E 023°30'0 0.0
2018-Jun-04 15:00N 37°52' E 023°30'0 0.0
2018-Jun-04 14:30N 37°52' E 023°30'0 0.0
2018-Jun-04 14:00N 37°52' E 023°30'0 0.0
2018-Jun-04 13:30N 37°52' E 023°30'0 0.0
2018-Jun-04 13:00N 37°52' E 023°30'0 0.0
2018-Jun-04 12:30N 37°52' E 023°30'0 0.0
2018-Jun-04 12:00N 37°52' E 023°30'0 0.0
2018-Jun-04 11:27N 37°52' E 023°30'0 0.3
2018-Jun-04 11:00N 37°52' E 023°30'0 0.2
2018-Jun-04 10:30N 37°52' E 023°31'0 0.1
2018-Jun-04 10:00N 37°52' E 023°31'0 0.1
2018-Jun-04 09:30N 37°52' E 023°31'0 0.0
2018-Jun-04 09:00N 37°52' E 023°31'0 0.0
2018-Jun-04 08:30N 37°52' E 023°31'0 0.0
2018-Jun-04 08:00N 37°52' E 023°31'0 0.0
2018-Jun-04 07:30N 37°52' E 023°31'0 0.1
2018-Jun-04 06:54N 37°52' E 023°31'0 0.2
2018-Jun-04 06:30N 37°52' E 023°30'0 0.1
2018-Jun-04 06:00N 37°52' E 023°30'0 0.1
2018-Jun-04 05:30N 37°52' E 023°30'0 0.0
2018-Jun-04 05:00N 37°52' E 023°30'0 0.0
2018-Jun-04 04:30N 37°52' E 023°30'0 0.0
2018-Jun-04 04:00N 37°52' E 023°30'0 0.0
2018-Jun-04 03:30N 37°52' E 023°30'0 0.0
2018-Jun-04 03:00N 37°52' E 023°30'0 0.0
2018-Jun-04 02:30N 37°52' E 023°30'0 0.0
2018-Jun-04 02:00N 37°52' E 023°30'0 0.0
2018-Jun-04 01:30N 37°52' E 023°30'0 0.0
2018-Jun-04 01:00N 37°52' E 023°30'0 0.0
2018-Jun-04 00:30N 37°52' E 023°30'0 0.1
2018-Jun-03 23:59N 37°52' E 023°31'0 0.1
2018-Jun-03 23:29N 37°52' E 023°30'0 0.0
2018-Jun-03 22:59N 37°52' E 023°30'0 0.0
2018-Jun-03 22:29N 37°52' E 023°30'0 0.0
2018-Jun-03 21:59N 37°52' E 023°30'0 0.0
2018-Jun-03 21:29N 37°52' E 023°30'0 0.0
2018-Jun-03 20:59N 37°52' E 023°30'0 0.0
2018-Jun-03 20:29N 37°52' E 023°30'0 0.0
2018-Jun-03 19:59N 37°52' E 023°30'0 0.0
2018-Jun-03 19:29N 37°52' E 023°30'0 0.0
2018-Jun-03 18:59N 37°52' E 023°30'0 0.0
2018-Jun-03 18:29N 37°52' E 023°30'0 0.0
2018-Jun-03 17:59N 37°52' E 023°30'0 0.0
2018-Jun-03 17:29N 37°52' E 023°30'0 0.1
2018-Jun-03 16:59N 37°52' E 023°30'0 0.2
2018-Jun-03 16:29N 37°52' E 023°30'0 0.1
2018-Jun-03 15:59N 37°52' E 023°30'0 0.0
2018-Jun-03 15:29N 37°52' E 023°30'0 0.0
2018-Jun-03 14:59N 37°52' E 023°30'0 0.0
2018-Jun-03 14:29N 37°52' E 023°31'0 0.0
2018-Jun-03 13:59N 37°52' E 023°30'0 0.0
2018-Jun-03 13:29N 37°52' E 023°30'0 0.0
2018-Jun-03 12:59N 37°52' E 023°30'0 0.0
2018-Jun-03 12:29N 37°52' E 023°30'0 0.0
2018-Jun-03 11:59N 37°52' E 023°30'0 0.0
2018-Jun-03 11:29N 37°52' E 023°30'0 0.0
2018-Jun-03 10:59N 37°52' E 023°30'0 0.0
2018-Jun-03 10:29N 37°52' E 023°30'0 0.1
2018-Jun-03 09:59N 37°52' E 023°30'0 0.0
2018-Jun-03 09:29N 37°52' E 023°30'0 0.0
2018-Jun-03 08:59N 37°52' E 023°30'0 0.0
2018-Jun-03 08:29N 37°52' E 023°30'0 0.0
2018-Jun-03 07:59N 37°52' E 023°30'0 0.1
2018-Jun-03 07:29N 37°52' E 023°30'0 0.0
2018-Jun-03 06:59N 37°52' E 023°30'0 0.0
2018-Jun-03 06:29N 37°52' E 023°30'0 0.1
2018-Jun-03 05:59N 37°52' E 023°30'0 0.0
2018-Jun-03 05:29N 37°52' E 023°30'0 0.0
2018-Jun-03 04:59N 37°52' E 023°30'0 0.0
2018-Jun-03 04:29N 37°52' E 023°30'0 0.0
2018-Jun-03 03:59N 37°52' E 023°31'0 0.0
2018-Jun-03 03:29N 37°52' E 023°31'0 0.0
2018-Jun-03 02:59N 37°52' E 023°31'0 0.0
2018-Jun-03 02:29N 37°52' E 023°30'0 0.0
2018-Jun-03 01:59N 37°52' E 023°31'0 0.0
2018-Jun-03 01:29N 37°52' E 023°30'0 0.0
2018-Jun-03 00:59N 37°52' E 023°30'0 0.0
2018-Jun-03 00:29N 37°52' E 023°31'0 0.0
2018-Jun-02 23:59N 37°52' E 023°31'0 0.0
2018-Jun-02 23:29N 37°52' E 023°31'0 0.0
2018-Jun-02 22:59N 37°52' E 023°31'0 0.0
2018-Jun-02 22:29N 37°52' E 023°31'0 0.1
2018-Jun-02 21:59N 37°52' E 023°31'0 0.0
2018-Jun-02 21:29N 37°52' E 023°31'0 0.1
2018-Jun-02 20:59N 37°52' E 023°31'0 0.0
2018-Jun-02 20:29N 37°52' E 023°31'0 0.0
2018-Jun-02 19:59N 37°52' E 023°31'0 0.0
2018-Jun-02 19:29N 37°52' E 023°30'0 0.2
2018-Jun-02 18:59N 37°52' E 023°30'0 0.0
2018-Jun-02 18:29N 37°52' E 023°30'0 0.0
2018-Jun-02 17:59N 37°52' E 023°30'0 0.0
2018-Jun-02 17:29N 37°52' E 023°30'0 0.1
2018-Jun-02 16:59N 37°52' E 023°30'0 0.1
2018-Jun-02 16:29N 37°52' E 023°30'0 0.0
2018-Jun-02 15:59N 37°52' E 023°30'0 0.0
2018-Jun-02 15:29N 37°52' E 023°30'0 0.0
2018-Jun-02 14:59N 37°52' E 023°30'0 0.0
2018-Jun-02 14:29N 37°52' E 023°30'0 0.1
2018-Jun-02 13:58N 37°52' E 023°30'0 0.0
2018-Jun-02 13:28N 37°52' E 023°30'0 0.0
2018-Jun-02 12:58N 37°52' E 023°30'0 0.0
2018-Jun-02 12:28N 37°52' E 023°30'0 0.0
2018-Jun-02 11:58N 37°52' E 023°30'0 0.1
2018-Jun-02 11:28N 37°52' E 023°30'0 0.0
2018-Jun-02 10:58N 37°52' E 023°30'0 0.1
2018-Jun-02 10:28N 37°52' E 023°31'0 0.2
2018-Jun-02 09:58N 37°52' E 023°31'0 0.0
2018-Jun-02 09:28N 37°52' E 023°31'0 0.0
2018-Jun-02 08:58N 37°52' E 023°31'0 0.0
2018-Jun-02 08:28N 37°52' E 023°31'0 0.0
2018-Jun-02 07:58N 37°52' E 023°31'0 0.0
2018-Jun-02 07:28N 37°52' E 023°31'0 0.1
2018-Jun-02 06:58N 37°52' E 023°31'0 0.1
2018-Jun-02 06:28N 37°52' E 023°31'0 0.0
2018-Jun-02 05:58N 37°52' E 023°31'0 0.0
2018-Jun-02 05:28N 37°52' E 023°31'0 0.0
2018-Jun-02 04:58N 37°52' E 023°31'0 0.0
2018-Jun-02 04:28N 37°52' E 023°31'0 0.0
2018-Jun-02 03:58N 37°52' E 023°31'0 0.0
2018-Jun-02 03:28N 37°52' E 023°31'0 0.0
2018-Jun-02 02:58N 37°52' E 023°31'0 0.0
2018-Jun-02 02:28N 37°52' E 023°31'0 0.0
2018-Jun-02 01:58N 37°52' E 023°31'0 0.1
2018-Jun-02 01:28N 37°52' E 023°31'0 0.0
2018-Jun-02 00:58N 37°52' E 023°31'0 0.1
2018-Jun-02 00:28N 37°52' E 023°31'0 0.0
2018-Jun-01 23:58N 37°52' E 023°31'0 0.0
2018-Jun-01 23:28N 37°52' E 023°31'0 0.1
2018-Jun-01 22:58N 37°52' E 023°31'0 0.1
2018-Jun-01 22:28N 37°52' E 023°31'0 0.0
2018-Jun-01 21:58N 37°52' E 023°31'0 0.1
2018-Jun-01 21:28N 37°52' E 023°31'0 0.0
2018-Jun-01 20:58N 37°52' E 023°31'0 0.0
2018-Jun-01 20:28N 37°52' E 023°31'0 0.1
2018-Jun-01 19:58N 37°52' E 023°31'0 0.1
2018-Jun-01 19:28N 37°52' E 023°31'0 0.0
2018-Jun-01 18:58N 37°52' E 023°31'0 0.0
2018-Jun-01 18:28N 37°52' E 023°31'0 0.0
2018-Jun-01 17:58N 37°52' E 023°31'0 0.1
2018-Jun-01 17:28N 37°52' E 023°31'0 0.0
2018-Jun-01 16:58N 37°52' E 023°31'0 0.0
2018-Jun-01 16:28N 37°52' E 023°31'0 0.0
2018-Jun-01 15:58N 37°52' E 023°31'0 0.1
2018-Jun-01 15:28N 37°52' E 023°31'0 0.1
2018-Jun-01 14:58N 37°52' E 023°31'0 0.1
2018-Jun-01 14:28N 37°52' E 023°31'0 0.2
2018-Jun-01 13:58N 37°52' E 023°31'0 0.1
2018-Jun-01 13:28N 37°52' E 023°31'0 0.0
2018-Jun-01 12:58N 37°52' E 023°31'0 0.1
2018-Jun-01 12:28N 37°52' E 023°31'0 0.0
2018-Jun-01 11:58N 37°52' E 023°31'0 0.1
2018-Jun-01 11:28N 37°52' E 023°31'0 0.1
2018-Jun-01 10:58N 37°52' E 023°31'0 0.1
2018-Jun-01 10:28N 37°52' E 023°31'0 0.2
2018-Jun-01 09:58N 37°52' E 023°31'0 0.0
2018-Jun-01 08:43N 37°52' E 023°31'0 0.1
2018-Jun-01 08:16N 37°52' E 023°31'0 0.1
2018-Jun-01 06:46N 37°52' E 023°31'0 0.0
2018-Jun-01 06:28N 37°52' E 023°31'0 0.1
2018-Jun-01 05:58N 37°52' E 023°31'0 0.1
2018-Jun-01 05:31N 37°52' E 023°31'0 0.0
2018-Jun-01 05:01N 37°52' E 023°31'0 0.0
2018-Jun-01 04:30N 37°52' E 023°31'0 0.1
2018-Jun-01 04:00N 37°52' E 023°31'0 0.0
2018-Jun-01 03:30N 37°52' E 023°31'0 0.1
2018-Jun-01 03:00N 37°52' E 023°31'0 0.1
2018-Jun-01 02:30N 37°52' E 023°31'0 0.1
2018-Jun-01 02:00N 37°52' E 023°31'0 0.0
2018-Jun-01 01:30N 37°52' E 023°31'0 0.0
2018-Jun-01 01:00N 37°52' E 023°31'0 0.0
2018-Jun-01 00:30N 37°52' E 023°31'0 0.1
2018-Jun-01 00:00N 37°52' E 023°31'0 0.0
2018-May-31 23:30N 37°52' E 023°31'0 0.1
2018-May-31 23:00N 37°52' E 023°31'0 0.1
2018-May-31 22:30N 37°52' E 023°31'0 0.0
2018-May-31 22:00N 37°52' E 023°31'0 0.0
2018-May-31 21:30N 37°52' E 023°31'0 0.0
2018-May-31 21:00N 37°52' E 023°31'0 0.1
2018-May-31 20:30N 37°52' E 023°31'0 0.1
2018-May-31 20:00N 37°52' E 023°30'0 0.0
2018-May-31 19:30N 37°52' E 023°30'  

Dump ship's entire track history